Time;durP1;ratioP1;P1;durP2;ratioP2;P2;SDS_P1;SDS_P2;PMS_P1;PMS_P2;Temp;Humidity;BMP_temperature;BMP_pressure;BME280_temperature;BME280_humidity;BME280_pressure;Samples;Min_cycle;Max_cycle;Signal;HPM_P1;HPM_P2
2023/12/31 00:00:12;;;;;;;26.77;18.73;;;;;;;2.48;68.59;93774.75;521920;28;837;-69
2023/12/31 00:00:27;;;;;;;26.60;17.55;;;;;;;2.47;68.87;93770.50;523113;28;974;-70
2023/12/31 00:00:42;;;;;;;26.88;18.33;;;;;;;2.47;69.22;93769.78;522170;28;872;-69
2023/12/31 00:00:58;;;;;;;26.23;18.97;;;;;;;2.47;69.27;93775.25;521924;28;1067;-69
2023/12/31 00:01:14;;;;;;;24.88;18.50;;;;;;;2.48;68.78;93772.00;521965;28;829;-70
2023/12/31 00:01:33;;;;;;;26.42;19.20;;;;;;;2.50;68.89;93766.06;523647;28;833;-70
2023/12/31 00:01:49;;;;;;;27.52;19.45;;;;;;;2.49;69.18;93773.50;523914;28;821;-70
2023/12/31 00:02:04;;;;;;;26.53;18.93;;;;;;;2.48;69.20;93772.00;523849;28;1707;-69
2023/12/31 00:02:20;;;;;;;29.00;19.98;;;;;;;2.46;68.49;93773.72;522118;28;1753;-70
2023/12/31 00:02:36;;;;;;;28.95;20.75;;;;;;;2.45;68.87;93770.25;522012;28;857;-69
2023/12/31 00:02:52;;;;;;;28.90;20.88;;;;;;;2.46;68.84;93771.00;523819;28;867;-69
2023/12/31 00:03:08;;;;;;;27.70;20.77;;;;;;;2.43;69.15;93769.25;523917;28;762;-69
2023/12/31 00:03:23;;;;;;;28.13;21.25;;;;;;;2.42;69.41;93770.50;522675;28;857;-69
2023/12/31 00:03:40;;;;;;;32.10;22.03;;;;;;;2.41;68.84;93769.00;525632;28;1100;-69
2023/12/31 00:03:55;;;;;;;31.50;22.10;;;;;;;2.41;69.06;93769.00;523658;28;1101;-69
2023/12/31 00:04:11;;;;;;;32.67;23.20;;;;;;;2.41;68.79;93771.72;523987;28;774;-69
2023/12/31 00:04:26;;;;;;;32.92;23.65;;;;;;;2.40;69.13;93775.69;524129;28;1176;-69
2023/12/31 00:04:41;;;;;;;31.23;23.33;;;;;;;2.44;68.92;93773.47;523957;28;805;-69
2023/12/31 00:04:57;;;;;;;31.50;23.10;;;;;;;2.45;69.27;93780.44;523770;28;978;-69
2023/12/31 00:05:12;;;;;;;31.10;23.65;;;;;;;2.46;68.92;93779.19;523892;28;785;-69
2023/12/31 00:05:28;;;;;;;30.67;23.10;;;;;;;2.44;68.82;93776.94;523823;28;1337;-69
2023/12/31 00:05:43;;;;;;;32.22;22.85;;;;;;;2.46;68.92;93774.47;522723;28;1768;-69
2023/12/31 00:05:59;;;;;;;34.60;23.27;;;;;;;2.45;68.93;93772.25;523061;28;781;-69
2023/12/31 00:06:14;;;;;;;31.40;23.42;;;;;;;2.45;69.24;93778.44;522540;28;766;-69
2023/12/31 00:06:30;;;;;;;30.53;23.83;;;;;;;2.46;69.50;93776.47;523437;28;873;-69
2023/12/31 00:06:45;;;;;;;32.92;23.55;;;;;;;2.46;69.13;93769.03;522660;28;805;-69
2023/12/31 00:07:01;;;;;;;34.90;23.90;;;;;;;2.45;69.30;93767.53;521745;28;1045;-69
2023/12/31 00:07:16;;;;;;;32.80;23.38;;;;;;;2.46;69.34;93777.22;521845;28;790;-69
2023/12/31 00:07:32;;;;;;;31.13;23.27;;;;;;;2.45;69.61;93778.44;523709;28;849;-69
2023/12/31 00:07:47;;;;;;;34.42;23.50;;;;;;;2.43;69.00;93771.97;522938;28;939;-69
2023/12/31 00:08:03;;;;;;;36.73;23.47;;;;;;;2.43;69.71;93769.25;521856;28;860;-69
2023/12/31 00:08:18;;;;;;;34.88;23.75;;;;;;;2.43;69.13;93775.44;521659;28;1690;-69
2023/12/31 00:08:34;;;;;;;34.40;24.50;;;;;;;2.43;69.40;93771.97;522934;28;1036;-68
2023/12/31 00:08:49;;;;;;;34.55;25.30;;;;;;;2.42;69.36;93770.50;522307;28;786;-68
2023/12/31 00:09:05;;;;;;;33.10;25.10;;;;;;;2.42;69.49;93773.97;523893;28;770;-68
2023/12/31 00:09:20;;;;;;;33.03;24.17;;;;;;;2.43;69.65;93769.25;523432;28;817;-68
2023/12/31 00:09:36;;;;;;;32.87;24.13;;;;;;;2.44;69.62;93774.22;523487;28;845;-68
2023/12/31 00:09:51;;;;;;;32.30;25.10;;;;;;;2.45;69.17;93772.97;523872;28;786;-68
2023/12/31 00:10:08;;;;;;;32.60;25.27;;;;;;;2.44;69.05;93774.22;523779;28;793;-68
2023/12/31 00:10:23;;;;;;;32.42;25.30;;;;;;;2.43;69.23;93777.41;523667;28;1005;-68
2023/12/31 00:10:39;;;;;;;32.30;25.20;;;;;;;2.40;69.71;93781.91;521858;28;1124;-68
2023/12/31 00:10:55;;;;;;;31.88;24.83;;;;;;;2.39;69.77;93777.66;521501;28;1782;-68
2023/12/31 00:11:10;;;;;;;31.35;23.65;;;;;;;2.16;69.70;93751.53;522408;28;773;-69
2023/12/31 00:11:26;;;;;;;29.73;22.63;;;;;;;2.19;69.53;93759.47;524086;28;794;-69
2023/12/31 00:11:41;;;;;;;30.67;23.23;;;;;;;2.34;69.80;93777.66;521786;28;892;-68
2023/12/31 00:11:57;;;;;;;31.73;23.20;;;;;;;2.30;69.15;93775.88;522689;28;1005;-68
2023/12/31 00:12:12;;;;;;;32.40;22.93;;;;;;;2.29;69.30;93770.94;521741;28;884;-68
2023/12/31 00:12:28;;;;;;;33.17;23.33;;;;;;;2.27;69.78;93784.28;523186;28;758;-68
2023/12/31 00:12:44;;;;;;;32.95;23.40;;;;;;;2.12;70.44;93775.53;523849;28;876;-68
2023/12/31 00:12:59;;;;;;;32.78;23.88;;;;;;;2.00;70.63;93771.25;523901;28;907;-70
2023/12/31 00:13:15;;;;;;;33.93;25.00;;;;;;;1.90;70.80;93769.94;521932;28;782;-68
2023/12/31 00:13:30;;;;;;;36.60;25.55;;;;;;;1.77;70.88;93777.78;523357;28;1017;-68
2023/12/31 00:13:46;;;;;;;35.73;25.37;;;;;;;1.62;71.80;93777.16;523830;28;794;-68
2023/12/31 00:14:01;;;;;;;32.83;24.52;;;;;;;1.58;71.59;93779.38;521468;28;1396;-68
2023/12/31 00:14:17;;;;;;;31.40;24.10;;;;;;;1.52;71.70;93776.59;521770;28;767;-68
2023/12/31 00:14:32;;;;;;;30.42;22.88;;;;;;;1.43;72.03;93780.22;522427;28;853;-68
2023/12/31 00:14:48;;;;;;;30.40;22.17;;;;;;;1.36;72.80;93783.41;521722;28;925;-68
2023/12/31 00:15:04;;;;;;;31.83;23.27;;;;;;;1.32;72.77;93791.00;522990;28;774;-68
2023/12/31 00:15:19;;;;;;;31.38;23.20;;;;;;;1.21;72.68;93782.00;522834;28;1673;-68
2023/12/31 00:15:35;;;;;;;29.35;22.65;;;;;;;1.11;73.05;93775.97;523402;28;1092;-68
2023/12/31 00:15:50;;;;;;;30.53;23.00;;;;;;;1.05;73.40;93777.16;521902;28;841;-68
2023/12/31 00:16:11;;;;;;;30.08;22.25;;;;;;;1.02;73.77;93773.41;522866;28;814;-68
2023/12/31 00:16:26;;;;;;;28.98;21.23;;;;;;;1.07;73.73;93780.88;523026;28;913;-68
2023/12/31 00:16:41;;;;;;;30.00;21.60;;;;;;;1.13;73.91;93781.69;523946;28;835;-68
2023/12/31 00:16:57;;;;;;;28.75;21.27;;;;;;;1.19;73.74;93779.75;523868;28;802;-69
2023/12/31 00:17:13;;;;;;;28.80;21.67;;;;;;;1.24;73.28;93784.50;523662;28;1116;-68
2023/12/31 00:17:28;;;;;;;31.00;22.77;;;;;;;1.32;73.46;93790.28;523347;28;864;-68
2023/12/31 00:17:43;;;;;;;35.70;23.83;;;;;;;1.36;73.38;93786.13;524054;28;781;-68
2023/12/31 00:17:59;;;;;;;35.92;23.23;;;;;;;1.41;73.27;93788.13;523985;28;881;-68
2023/12/31 00:18:14;;;;;;;31.27;21.40;;;;;;;1.44;72.76;93778.25;523040;28;1682;-68
2023/12/31 00:18:30;;;;;;;31.58;22.10;;;;;;;1.30;72.94;93782.56;522425;28;770;-68
2023/12/31 00:18:45;;;;;;;31.67;23.00;;;;;;;1.28;72.97;93782.31;522649;28;993;-68
2023/12/31 00:19:01;;;;;;;32.60;23.10;;;;;;;1.27;73.22;93772.69;523943;28;1118;-68
2023/12/31 00:19:17;;;;;;;33.17;23.05;;;;;;;1.27;73.20;93775.41;522905;28;853;-68
2023/12/31 00:19:32;;;;;;;32.93;23.43;;;;;;;1.24;73.19;93776.34;524009;28;1090;-68
2023/12/31 00:19:48;;;;;;;33.17;24.25;;;;;;;1.26;73.44;93776.59;523937;28;1918;-68
2023/12/31 00:20:04;;;;;;;30.50;23.40;;;;;;;1.27;73.09;93772.69;522803;28;1390;-68
2023/12/31 00:20:19;;;;;;;31.80;24.05;;;;;;;1.28;73.13;93776.88;522987;28;910;-68
2023/12/31 00:20:35;;;;;;;33.85;24.08;;;;;;;1.29;72.93;93770.22;522756;28;813;-68
2023/12/31 00:20:50;;;;;;;34.73;24.40;;;;;;;1.33;73.38;93770.75;521752;28;1753;-68
2023/12/31 00:21:06;;;;;;;36.90;25.05;;;;;;;1.27;73.14;93761.78;522735;28;1115;-68
2023/12/31 00:21:21;;;;;;;34.33;24.60;;;;;;;1.37;72.94;93774.00;523907;28;805;-68
2023/12/31 00:21:41;;;;;;;30.55;23.10;;;;;;;1.42;73.00;93772.56;524085;28;1092;-68
2023/12/31 00:21:57;;;;;;;33.00;22.27;;;;;;;1.45;72.75;93777.03;522952;28;758;-68
2023/12/31 00:22:12;;;;;;;34.65;23.80;;;;;;;1.48;72.85;93776.81;521975;28;821;-68
2023/12/31 00:22:28;;;;;;;31.50;24.10;;;;;;;1.51;72.43;93777.81;523283;28;936;-68
2023/12/31 00:22:43;;;;;;;32.07;23.97;;;;;;;1.53;72.70;93772.66;524086;28;809;-68
2023/12/31 00:22:59;;;;;;;32.67;23.95;;;;;;;1.53;72.70;93773.41;523291;28;770;-68
2023/12/31 00:23:14;;;;;;;33.53;23.97;;;;;;;1.53;72.57;93773.41;522138;28;991;-68
2023/12/31 00:23:30;;;;;;;35.15;24.58;;;;;;;1.55;72.26;93775.63;523487;28;1499;-68
2023/12/31 00:23:46;;;;;;;36.60;24.48;;;;;;;1.55;72.46;93775.63;522750;28;1246;-68
2023/12/31 00:24:01;;;;;;;34.87;23.77;;;;;;;1.57;72.31;93775.13;523509;28;957;-68
2023/12/31 00:24:17;;;;;;;33.72;23.52;;;;;;;1.56;72.20;93776.38;521914;28;881;-68
2023/12/31 00:24:32;;;;;;;35.80;23.47;;;;;;;1.57;72.37;93773.16;523536;28;1107;-68
2023/12/31 00:24:51;;;;;;;35.03;23.40;;;;;;;1.54;72.28;93772.16;521827;28;1073;-68
2023/12/31 00:25:07;;;;;;;35.03;23.75;;;;;;;1.43;72.56;93774.78;523953;28;904;-68
2023/12/31 00:25:22;;;;;;;39.33;26.07;;;;;;;1.27;72.79;93774.66;524316;28;841;-68
2023/12/31 00:25:38;;;;;;;42.47;28.08;;;;;;;1.21;72.72;93771.84;523465;28;822;-68
2023/12/31 00:25:54;;;;;;;43.03;28.40;;;;;;;1.19;73.50;93771.59;521952;28;857;-69
2023/12/31 00:26:09;;;;;;;42.57;28.70;;;;;;;1.12;73.04;93776.72;521649;28;1690;-69
2023/12/31 00:26:25;;;;;;;42.20;28.55;;;;;;;1.09;73.43;93772.22;523003;28;975;-69
2023/12/31 00:26:40;;;;;;;39.87;28.30;;;;;;;1.08;73.65;93776.94;523753;28;871;-68
2023/12/31 00:26:55;;;;;;;39.25;27.65;;;;;;;1.09;73.72;93777.66;521846;28;861;-69
2023/12/31 00:27:11;;;;;;;40.43;27.57;;;;;;;1.12;73.41;93774.00;521966;28;797;-69
2023/12/31 00:27:26;;;;;;;44.38;28.85;;;;;;;1.13;73.76;93783.63;523051;28;762;-69
2023/12/31 00:27:42;;;;;;;45.07;28.03;;;;;;;1.02;73.23;93754.38;524035;28;917;-69
2023/12/31 00:27:57;;;;;;;41.60;26.77;;;;;;;1.17;73.41;93776.75;523969;28;980;-69
2023/12/31 00:28:13;;;;;;;39.70;25.73;;;;;;;1.20;73.31;93775.81;523866;28;1069;-69
2023/12/31 00:28:28;;;;;;;38.05;24.92;;;;;;;1.18;73.37;93778.28;523468;28;849;-69
2023/12/31 00:28:44;;;;;;;36.87;25.63;;;;;;;1.19;73.60;93781.75;523925;28;1134;-69
2023/12/31 00:28:59;;;;;;;35.67;25.20;;;;;;;1.12;73.81;93782.16;523879;28;766;-69
2023/12/31 00:29:14;;;;;;;35.88;24.20;;;;;;;1.18;73.37;93777.53;522977;28;1721;-69
2023/12/31 00:29:30;;;;;;;34.53;24.33;;;;;;;1.20;73.77;93781.25;521919;28;1157;-70
2023/12/31 00:29:45;;;;;;;33.53;24.52;;;;;;;1.22;73.32;93776.09;523697;28;890;-69
2023/12/31 00:30:01;;;;;;;33.10;23.40;;;;;;;1.22;73.60;93781.53;524015;28;869;-69
2023/12/31 00:30:16;;;;;;;33.28;23.05;;;;;;;1.21;73.91;93780.00;523870;28;861;-69
2023/12/31 00:30:33;;;;;;;36.80;23.80;;;;;;;1.19;73.66;93774.31;524377;28;845;-69
2023/12/31 00:30:48;;;;;;;38.20;24.95;;;;;;;1.17;74.21;93776.75;524012;28;942;-69
2023/12/31 00:31:04;;;;;;;39.53;25.97;;;;;;;1.11;73.70;93781.41;524001;28;952;-69
2023/12/31 00:31:19;;;;;;;40.63;25.77;;;;;;;1.02;74.43;93778.84;523047;28;1176;-69
2023/12/31 00:31:34;;;;;;;37.37;24.93;;;;;;;0.94;74.41;93777.78;524161;28;835;-69
2023/12/31 00:31:50;;;;;;;39.60;26.13;;;;;;;0.90;74.89;93771.81;523228;28;1582;-69
2023/12/31 00:32:06;;;;;;;46.47;29.52;;;;;;;0.93;74.89;93776.31;522687;28;836;-69
2023/12/31 00:32:22;;;;;;;48.92;29.15;;;;;;;0.91;75.39;93776.00;523573;28;806;-69
2023/12/31 00:32:37;;;;;;;49.47;29.48;;;;;;;0.89;75.35;93772.28;523823;28;905;-69
2023/12/31 00:32:52;;;;;;;55.20;32.60;;;;;;;0.92;75.32;93784.91;523100;28;986;-69
2023/12/31 00:33:08;;;;;;;61.10;34.63;;;;;;;0.96;75.44;93775.31;521721;28;798;-69
2023/12/31 00:33:23;;;;;;;62.40;35.20;;;;;;;1.00;74.98;93781.28;522526;28;802;-69
2023/12/31 00:33:39;;;;;;;59.33;34.70;;;;;;;0.85;75.26;93756.19;523820;28;928;-69
2023/12/31 00:33:57;;;;;;;58.15;34.42;;;;;;;1.07;75.17;93775.44;522172;28;1488;-69
2023/12/31 00:34:13;;;;;;;60.53;33.50;;;;;;;1.14;75.03;93785.91;523724;28;841;-69
2023/12/31 00:34:28;;;;;;;56.40;31.65;;;;;;;1.18;74.69;93782.97;523535;28;938;-69
2023/12/31 00:34:44;;;;;;;50.20;29.33;;;;;;;1.20;74.40;93777.78;524044;28;794;-69
2023/12/31 00:34:59;;;;;;;48.95;28.73;;;;;;;1.23;74.46;93783.03;522124;28;770;-69
2023/12/31 00:35:15;;;;;;;53.10;29.93;;;;;;;1.27;74.11;93783.56;521905;28;786;-69
2023/12/31 00:35:30;;;;;;;54.28;32.10;;;;;;;1.29;74.35;93789.25;523665;28;838;-69
2023/12/31 00:35:45;;;;;;;55.40;33.57;;;;;;;1.30;74.14;93787.28;523906;28;869;-69
2023/12/31 00:36:01;;;;;;;57.53;32.67;;;;;;;1.27;73.99;93785.53;523125;28;985;-69
2023/12/31 00:36:16;;;;;;;56.43;31.50;;;;;;;1.23;74.27;93788.47;522777;28;1752;-69
2023/12/31 00:36:34;;;;;;;55.70;31.73;;;;;;;1.21;74.56;93784.72;522557;28;770;-69
2023/12/31 00:36:50;;;;;;;59.50;32.88;;;;;;;1.21;74.13;93782.72;523378;28;818;-70
2023/12/31 00:37:05;;;;;;;56.63;32.15;;;;;;;1.22;74.55;93778.03;523917;28;813;-69
2023/12/31 00:37:20;;;;;;;56.33;32.43;;;;;;;1.23;74.61;93780.31;522651;28;920;-69
2023/12/31 00:37:36;;;;;;;57.80;34.33;;;;;;;1.23;74.67;93777.59;524101;28;1149;-69
2023/12/31 00:37:52;;;;;;;56.92;34.22;;;;;;;1.28;74.09;93784.28;523827;28;1000;-69
2023/12/31 00:38:07;;;;;;;60.13;34.23;;;;;;;1.06;74.04;93744.03;523779;28;908;-69
2023/12/31 00:38:23;;;;;;;53.53;31.53;;;;;;;1.24;74.13;93787.22;523286;28;765;-68
2023/12/31 00:38:39;;;;;;;47.50;28.73;;;;;;;1.24;74.39;93775.59;521764;28;810;-70
2023/12/31 00:38:55;;;;;;;48.20;28.35;;;;;;;1.21;74.46;93785.44;521692;28;841;-69
2023/12/31 00:39:11;;;;;;;44.33;27.00;;;;;;;1.21;74.04;93787.44;522025;28;1192;-68
2023/12/31 00:39:26;;;;;;;44.22;26.15;;;;;;;1.17;74.54;93784.94;524184;28;794;-68
2023/12/31 00:39:41;;;;;;;45.67;25.80;;;;;;;1.18;74.22;93782.97;523871;28;832;-69
2023/12/31 00:39:57;;;;;;;42.45;24.83;;;;;;;1.19;74.23;93787.19;523673;28;1914;-69
2023/12/31 00:40:12;;;;;;;40.97;25.40;;;;;;;1.20;74.13;93780.50;523800;28;1048;-69
2023/12/31 00:40:28;;;;;;;41.80;26.88;;;;;;;1.21;74.50;93788.16;522715;28;1519;-68
2023/12/31 00:40:43;;;;;;;43.60;28.80;;;;;;;1.22;74.49;93789.69;521750;28;863;-69
2023/12/31 00:40:59;;;;;;;49.35;31.48;;;;;;;1.09;74.33;93759.38;521930;28;1058;-69
2023/12/31 00:41:15;;;;;;;52.38;31.52;;;;;;;1.26;74.08;93781.28;521728;28;901;-69
2023/12/31 00:41:31;;;;;;;50.37;29.97;;;;;;;1.28;74.05;93785.03;523538;28;857;-68
2023/12/31 00:41:47;;;;;;;45.05;27.98;;;;;;;1.32;74.19;93787.56;523772;28;904;-69
2023/12/31 00:42:02;;;;;;;46.47;27.63;;;;;;;1.35;74.41;93784.59;523779;28;782;-68
2023/12/31 00:42:18;;;;;;;43.40;26.05;;;;;;;1.38;74.16;93786.38;523851;28;801;-68
2023/12/31 00:42:35;;;;;;;39.10;24.17;;;;;;;1.41;73.68;93784.66;523272;28;900;-68
2023/12/31 00:42:51;;;;;;;38.03;23.02;;;;;;;1.44;73.83;93783.69;523596;28;888;-69
2023/12/31 00:43:06;;;;;;;31.47;20.57;;;;;;;1.47;73.71;93786.19;522423;28;1575;-68
2023/12/31 00:43:22;;;;;;;25.40;18.63;;;;;;;1.48;73.70;93782.25;523191;28;782;-69
2023/12/31 00:43:37;;;;;;;26.93;18.93;;;;;;;1.49;72.85;93783.72;522374;28;841;-69
2023/12/31 00:43:52;;;;;;;26.37;18.60;;;;;;;1.25;73.02;93747.94;521604;28;770;-68
2023/12/31 00:44:08;;;;;;;23.83;17.77;;;;;;;1.46;72.46;93783.97;521524;28;1157;-68
2023/12/31 00:44:23;;;;;;;25.67;17.80;;;;;;;1.44;72.74;93776.28;522381;28;890;-68
2023/12/31 00:44:39;;;;;;;24.83;17.48;;;;;;;1.45;72.87;93791.38;523792;28;794;-68
2023/12/31 00:44:54;;;;;;;24.70;18.07;;;;;;;1.47;72.59;93782.75;523873;28;849;-68
2023/12/31 00:45:10;;;;;;;26.20;18.60;;;;;;;1.50;72.26;93787.97;522812;28;825;-68
2023/12/31 00:45:25;;;;;;;24.33;17.93;;;;;;;1.47;72.47;93774.56;522659;28;842;-68
2023/12/31 00:45:41;;;;;;;22.77;17.50;;;;;;;1.55;71.87;93786.50;523519;28;1009;-68
2023/12/31 00:45:56;;;;;;;22.63;17.43;;;;;;;1.54;71.93;93785.00;523838;28;836;-68
2023/12/31 00:46:13;;;;;;;24.30;17.70;;;;;;;1.46;71.94;93779.28;523743;28;903;-68
2023/12/31 00:46:28;;;;;;;26.25;18.80;;;;;;;1.39;71.73;93781.66;522633;28;1570;-68
2023/12/31 00:46:44;;;;;;;24.95;18.58;;;;;;;1.47;71.97;93788.19;521664;28;909;-69
2023/12/31 00:46:59;;;;;;;23.60;17.17;;;;;;;1.48;72.08;93781.50;523199;28;873;-68
2023/12/31 00:47:15;;;;;;;25.42;17.77;;;;;;;1.49;71.58;93781.00;523447;28;1001;-68
2023/12/31 00:47:30;;;;;;;26.43;18.77;;;;;;;1.52;71.94;93787.47;524045;28;908;-68
2023/12/31 00:47:45;;;;;;;23.45;17.92;;;;;;;1.56;71.15;93781.81;523814;28;761;-68
2023/12/31 00:48:01;;;;;;;22.30;17.33;;;;;;;1.58;71.57;93790.25;523782;28;1152;-69
2023/12/31 00:48:16;;;;;;;22.65;17.30;;;;;;;1.59;71.58;93783.56;523723;28;865;-68
2023/12/31 00:48:32;;;;;;;20.83;16.80;;;;;;;1.62;70.84;93779.88;522983;28;876;-68
2023/12/31 00:48:47;;;;;;;20.70;16.70;;;;;;;1.63;71.57;93784.84;521711;28;778;-68
2023/12/31 00:49:03;;;;;;;23.88;17.48;;;;;;;1.65;71.13;93784.34;523214;28;1072;-68
2023/12/31 00:49:18;;;;;;;24.27;17.70;;;;;;;1.67;71.28;93785.34;523791;28;782;-68
2023/12/31 00:49:34;;;;;;;25.52;18.13;;;;;;;1.70;71.09;93784.41;524100;28;916;-68
2023/12/31 00:49:49;;;;;;;28.13;18.77;;;;;;;1.72;70.32;93784.66;523811;28;880;-68
2023/12/31 00:50:05;;;;;;;29.77;19.77;;;;;;;1.73;70.71;93778.00;523807;28;777;-68
2023/12/31 00:50:20;;;;;;;28.50;19.25;;;;;;;1.74;70.32;93784.19;523126;28;1610;-68
2023/12/31 00:50:37;;;;;;;26.70;17.90;;;;;;;1.72;70.77;93787.38;522403;28;892;-69
2023/12/31 00:50:52;;;;;;;29.85;18.10;;;;;;;1.72;70.41;93783.91;521637;28;853;-69
2023/12/31 00:51:07;;;;;;;31.92;19.10;;;;;;;1.73;70.58;93786.16;521638;28;1001;-68
2023/12/31 00:51:23;;;;;;;28.30;19.47;;;;;;;1.75;70.78;93785.69;522085;28;771;-69
2023/12/31 00:51:38;;;;;;;27.10;19.98;;;;;;;1.75;71.08;93782.97;521825;28;786;-68
2023/12/31 00:51:54;;;;;;;28.03;19.63;;;;;;;1.76;70.66;93789.88;521798;28;786;-69
2023/12/31 00:52:09;;;;;;;27.65;19.08;;;;;;;1.77;70.52;93783.97;522040;28;1085;-69
2023/12/31 00:52:25;;;;;;;26.90;18.67;;;;;;;1.80;70.46;93785.72;523708;28;868;-69
2023/12/31 00:52:40;;;;;;;25.00;17.50;;;;;;;1.82;70.69;93793.41;521477;28;823;-69
2023/12/31 00:52:56;;;;;;;22.05;16.88;;;;;;;1.84;70.58;93788.22;521662;28;861;-69
2023/12/31 00:53:11;;;;;;;22.23;17.07;;;;;;;1.85;70.19;93787.72;521992;28;1830;-69
2023/12/31 00:53:26;;;;;;;23.33;16.75;;;;;;;1.88;70.66;93788.75;524138;28;814;-69
2023/12/31 00:53:42;;;;;;;21.70;16.40;;;;;;;1.89;70.43;93790.22;521959;28;945;-69
2023/12/31 00:53:57;;;;;;;20.90;16.00;;;;;;;1.90;70.80;93794.44;523942;28;857;-69
2023/12/31 00:54:13;;;;;;;21.37;16.27;;;;;;;1.92;71.01;93792.00;522090;28;1214;-69
2023/12/31 00:54:28;;;;;;;21.70;17.02;;;;;;;1.93;70.55;93785.31;523339;28;920;-69
2023/12/31 00:54:44;;;;;;;20.73;15.97;;;;;;;1.94;69.93;93776.66;524000;28;774;-69
2023/12/31 00:54:59;;;;;;;19.50;15.27;;;;;;;1.94;70.12;93781.34;523876;28;805;-69
2023/12/31 00:55:15;;;;;;;19.13;15.43;;;;;;;1.97;70.00;93778.41;522523;28;854;-69
2023/12/31 00:55:30;;;;;;;19.52;15.63;;;;;;;1.98;70.41;93782.63;523713;28;809;-69
2023/12/31 00:55:46;;;;;;;20.37;16.53;;;;;;;2.00;69.82;93779.41;523861;28;1088;-69
2023/12/31 00:56:02;;;;;;;20.67;17.25;;;;;;;2.00;70.12;93776.69;523911;28;840;-69
2023/12/31 00:56:17;;;;;;;20.95;17.20;;;;;;;2.01;70.18;93775.47;523547;28;1701;-69
2023/12/31 00:56:33;;;;;;;24.57;17.27;;;;;;;2.02;69.26;93780.44;522568;28;1068;-69
2023/12/31 00:56:48;;;;;;;25.77;17.65;;;;;;;2.03;69.36;93781.19;521876;28;798;-69
2023/12/31 00:57:04;;;;;;;24.40;17.37;;;;;;;2.03;69.42;93779.22;523964;28;827;-69
2023/12/31 00:57:20;;;;;;;25.60;17.25;;;;;;;2.04;69.66;93777.97;523587;28;1099;-69
2023/12/31 00:57:35;;;;;;;24.53;16.67;;;;;;;2.05;68.79;93781.44;524257;28;815;-69
2023/12/31 00:57:50;;;;;;;22.13;16.17;;;;;;;2.05;69.69;93779.47;523909;28;869;-69
2023/12/31 00:58:07;;;;;;;20.83;16.13;;;;;;;2.06;68.83;93780.94;523909;28;781;-69
2023/12/31 00:58:22;;;;;;;22.13;16.48;;;;;;;2.08;69.08;93772.31;524275;28;888;-69
2023/12/31 00:58:38;;;;;;;21.63;16.57;;;;;;;2.08;69.42;93777.75;522031;28;869;-69
2023/12/31 00:58:53;;;;;;;21.30;16.02;;;;;;;2.08;68.91;93780.47;521960;28;998;-69
2023/12/31 00:59:09;;;;;;;23.93;16.20;;;;;;;2.10;69.25;93778.00;523849;28;806;-69
2023/12/31 00:59:24;;;;;;;22.95;16.35;;;;;;;1.84;69.27;93741.94;524247;28;849;-69
2023/12/31 00:59:40;;;;;;;21.90;16.70;;;;;;;2.11;69.29;93785.69;523987;28;1056;-69
2023/12/31 00:59:55;;;;;;;21.45;16.55;;;;;;;2.12;69.67;93779.00;523904;28;1914;-69
2023/12/31 01:00:11;;;;;;;23.27;16.70;;;;;;;2.14;69.17;93786.69;523877;28;916;-69
2023/12/31 01:00:27;;;;;;;26.30;17.20;;;;;;;2.13;69.16;93777.78;523002;28;1829;-69
2023/12/31 01:00:42;;;;;;;26.90;17.33;;;;;;;2.15;69.31;93780.00;523590;28;1120;-70
2023/12/31 01:00:58;;;;;;;26.87;18.67;;;;;;;2.15;69.60;93780.75;521944;28;1594;-69
2023/12/31 01:01:13;;;;;;;26.65;19.02;;;;;;;2.17;69.59;93774.81;523295;28;848;-69
2023/12/31 01:01:29;;;;;;;26.77;18.07;;;;;;;2.17;68.81;93774.81;521857;28;813;-69
2023/12/31 01:01:44;;;;;;;25.20;17.80;;;;;;;2.17;68.97;93780.25;522278;28;855;-69
2023/12/31 01:02:00;;;;;;;24.40;18.07;;;;;;;2.15;69.54;93775.31;522996;28;1573;-70
2023/12/31 01:02:15;;;;;;;23.48;17.35;;;;;;;2.13;69.06;93772.31;521853;28;969;-69
2023/12/31 01:02:31;;;;;;;23.47;17.80;;;;;;;2.12;69.74;93778.28;522745;28;869;-68
2023/12/31 01:02:46;;;;;;;26.25;18.92;;;;;;;2.10;69.48;93773.28;521582;28;1535;-69
2023/12/31 01:03:01;;;;;;;28.30;18.93;;;;;;;2.10;69.54;93770.56;522184;28;868;-69
2023/12/31 01:03:17;;;;;;;29.20;18.83;;;;;;;2.11;69.80;93768.59;521687;28;857;-69
2023/12/31 01:03:33;;;;;;;28.60;18.23;;;;;;;2.12;69.38;93767.38;524677;28;985;-69
2023/12/31 01:03:50;;;;;;;26.17;17.92;;;;;;;2.12;70.01;93773.53;524944;28;1051;-69
2023/12/31 01:04:05;;;;;;;27.80;18.95;;;;;;;2.13;69.54;93763.41;523764;28;857;-69
2023/12/31 01:04:21;;;;;;;31.77;19.50;;;;;;;2.16;70.03;93770.63;524713;28;1269;-69
2023/12/31 01:04:36;;;;;;;30.20;19.17;;;;;;;2.18;69.88;93770.88;523350;28;1642;-69
2023/12/31 01:04:52;;;;;;;28.92;19.30;;;;;;;2.18;70.08;93771.63;522315;28;1125;-69
2023/12/31 01:05:08;;;;;;;28.30;19.60;;;;;;;2.20;69.58;93768.41;523443;28;946;-69
2023/12/31 01:05:23;;;;;;;26.27;19.00;;;;;;;2.21;69.89;93770.63;521763;28;1333;-69
2023/12/31 01:05:39;;;;;;;26.70;18.87;;;;;;;2.21;69.73;93767.16;523405;28;1236;-69
2023/12/31 01:06:03;;;;;;;27.05;19.15;;;;;;;2.20;70.09;93773.84;521771;28;976;-68
2023/12/31 01:06:19;;;;;;;27.00;19.60;;;;;;;2.15;70.21;93771.84;521538;28;912;-69
2023/12/31 01:06:34;;;;;;;25.85;19.50;;;;;;;2.10;70.06;93772.56;524109;28;853;-69
2023/12/31 01:06:50;;;;;;;24.80;19.20;;;;;;;2.03;70.21;93776.47;522572;28;821;-69
2023/12/31 01:07:05;;;;;;;25.67;19.00;;;;;;;1.94;70.81;93773.19;521657;28;1087;-69
2023/12/31 01:07:21;;;;;;;28.80;19.23;;;;;;;1.85;71.11;93774.13;522467;28;1570;-69
2023/12/31 01:07:37;;;;;;;28.67;18.97;;;;;;;1.79;71.15;93781.50;522593;28;841;-69
2023/12/31 01:07:52;;;;;;;25.98;17.98;;;;;;;1.72;71.64;93773.03;522914;28;1069;-69
2023/12/31 01:08:08;;;;;;;25.53;18.20;;;;;;;1.67;71.69;93777.19;521645;28;802;-69
2023/12/31 01:08:23;;;;;;;26.88;18.73;;;;;;;1.64;71.53;93780.91;522724;28;790;-69
2023/12/31 01:08:39;;;;;;;25.97;18.57;;;;;;;1.63;71.90;93778.66;523542;28;1069;-69
2023/12/31 01:08:56;;;;;;;26.27;18.83;;;;;;;1.62;71.66;93777.16;523712;28;857;-69
2023/12/31 01:09:12;;;;;;;27.25;18.40;;;;;;;1.61;72.23;93773.69;523686;28;841;-69
2023/12/31 01:09:28;;;;;;;25.20;18.35;;;;;;;1.62;72.15;93769.00;523267;28;743;-69
2023/12/31 01:09:44;;;;;;;26.13;19.33;;;;;;;1.65;72.79;93773.47;521741;28;1091;-69
2023/12/31 01:09:59;;;;;;;26.35;19.48;;;;;;;1.65;72.42;93774.22;521652;28;837;-68
2023/12/31 01:10:15;;;;;;;26.43;19.50;;;;;;;1.66;72.33;93775.72;521715;28;801;-69
2023/12/31 01:10:31;;;;;;;29.17;20.48;;;;;;;1.63;72.34;93784.09;523496;28;912;-68
2023/12/31 01:10:46;;;;;;;28.73;20.43;;;;;;;1.60;72.76;93768.75;523740;28;837;-69
2023/12/31 01:11:02;;;;;;;27.27;20.30;;;;;;;1.57;72.66;93773.16;523694;28;857;-69
2023/12/31 01:11:17;;;;;;;28.00;20.52;;;;;;;1.57;72.54;93775.88;523344;28;1674;-69
2023/12/31 01:11:34;;;;;;;29.57;19.77;;;;;;;1.51;72.92;93766.94;522448;28;939;-69
2023/12/31 01:11:49;;;;;;;29.73;19.70;;;;;;;1.57;72.81;93775.13;521706;28;854;-68
2023/12/31 01:12:05;;;;;;;28.77;20.00;;;;;;;1.57;73.27;93767.72;523540;28;1049;-69
2023/12/31 01:12:20;;;;;;;27.55;19.80;;;;;;;1.58;73.13;93774.69;523666;28;950;-69
2023/12/31 01:12:35;;;;;;;28.20;20.23;;;;;;;1.59;73.00;93767.22;524012;28;885;-69
2023/12/31 01:12:51;;;;;;;30.52;20.45;;;;;;;1.58;73.23;93773.91;523766;28;825;-69
2023/12/31 01:13:06;;;;;;;29.30;20.10;;;;;;;1.58;73.26;93774.69;523648;28;786;-69
2023/12/31 01:13:22;;;;;;;26.73;19.52;;;;;;;1.57;73.39;93773.16;524010;28;809;-69
2023/12/31 01:13:38;;;;;;;28.43;20.23;;;;;;;1.56;73.09;93770.94;522861;28;1086;-69
2023/12/31 01:13:54;;;;;;;31.00;19.95;;;;;;;1.56;73.23;93770.94;523719;28;936;-69
2023/12/31 01:14:09;;;;;;;29.97;19.97;;;;;;;1.50;73.24;93771.63;523746;28;781;-70
2023/12/31 01:14:25;;;;;;;28.42;20.08;;;;;;;1.47;73.36;93772.59;523893;28;864;-69
2023/12/31 01:14:41;;;;;;;28.10;20.37;;;;;;;1.48;73.93;93774.09;523581;28;913;-69
2023/12/31 01:14:56;;;;;;;26.75;20.15;;;;;;;1.46;73.74;93770.34;523587;28;985;-69
2023/12/31 01:15:12;;;;;;;27.75;19.65;;;;;;;1.45;73.70;93771.59;522338;28;1703;-69
2023/12/31 01:15:27;;;;;;;27.90;19.30;;;;;;;1.46;74.09;93773.81;523321;28;770;-69